Seattle, Washington
Traffic Map
Current Weather Conditions
Seattle, Washington
Overcast
Overcast
44°
Feels Like: 40°
Wind Chill: 40° Ceiling: 8000
Heat Index: 44° Visibility: 10mi
Dew Point: 40° Wind: 7mph
Humidity: 85% Direction: 180° (S)
Pressure: 30.09in Gusts: 0mph
Raw Report DataKBFI 230853Z 18006KT 10SM FEW036 OVC080 07/04 A3009 RMK AO2 SLP187 T00670044 50002
Traffic Incident Summary
Active as of:
Severity:
Category:
InformationThere was an issue retrieving the traffic information for this location. Please try a different location or try again shortly.
Advertisements
Track Severe Weather on mobile